createdAt,value
2023-03-11T00:00:34.297Z,98296.64
2023-03-11T00:01:38.676Z,98294.78
2023-03-11T00:02:41.054Z,98289.42
2023-03-11T00:03:43.634Z,98285.91
2023-03-11T00:04:46.092Z,98284.88
2023-03-11T00:05:48.723Z,98286.58
2023-03-11T00:06:51.501Z,98286.58
2023-03-11T00:07:54.341Z,98283.89
2023-03-11T00:08:57.011Z,98291.95
2023-03-11T00:09:59.470Z,98284.72
2023-03-11T00:11:02.709Z,98285.59
2023-03-11T00:12:06.711Z,98289.10
2023-03-11T00:13:10.113Z,98282.05
2023-03-11T00:14:12.699Z,98286.42
2023-03-11T00:15:15.317Z,98281.05
2023-03-11T00:16:18.858Z,98280.22
2023-03-11T00:17:21.917Z,98277.53
2023-03-11T00:18:27.609Z,98273.00
2023-03-11T00:19:29.983Z,98270.31
2023-03-11T00:21:47.565Z,98268.23
2023-03-11T00:22:51.216Z,98265.81
2023-03-11T00:23:53.843Z,98265.81
2023-03-11T00:24:56.390Z,98270.16
2023-03-11T00:26:00.631Z,98265.81
2023-03-11T00:27:03.460Z,98262.11
2023-03-11T00:28:09.976Z,98263.80
2023-03-11T00:29:13.500Z,98254.92
2023-03-11T00:30:17.675Z,98264.79
2023-03-11T00:31:20.316Z,98255.75
2023-03-11T00:32:23.943Z,98243.42
2023-03-11T00:33:26.795Z,98243.42
2023-03-11T00:34:29.379Z,98265.49
2023-03-11T00:35:32.517Z,98260.95
2023-03-11T00:36:35.291Z,98258.27
2023-03-11T00:37:39.085Z,98259.13
2023-03-11T00:38:41.823Z,98254.59
2023-03-11T00:39:45.024Z,98252.08
2023-03-11T00:40:47.748Z,98252.08
2023-03-11T00:41:52.044Z,98256.45
2023-03-11T00:42:54.718Z,98256.45
2023-03-11T00:43:57.141Z,98254.59
2023-03-11T00:45:00.165Z,98253.77
2023-03-11T00:46:04.288Z,98251.08
2023-03-11T00:47:07.213Z,98243.86
2023-03-11T00:48:11.499Z,98238.66
2023-03-11T00:49:14.456Z,98236.80
2023-03-11T00:51:36.530Z,98238.39
2023-03-11T00:52:41.143Z,98235.97
2023-03-11T00:53:44.243Z,98234.28
2023-03-11T00:54:46.912Z,98233.45
2023-03-11T00:55:49.906Z,98231.59
2023-03-11T00:56:52.637Z,98225.40
2023-03-11T00:57:56.466Z,98233.45
2023-03-11T00:59:00.930Z,98222.71
2023-03-11T01:00:06.472Z,98219.01
2023-03-11T01:01:15.595Z,98209.30
2023-03-11T01:02:19.203Z,98215.49
2023-03-11T01:03:22.522Z,98214.66
2023-03-11T01:04:26.000Z,98208.44
2023-03-11T01:05:30.349Z,98205.75
2023-03-11T01:06:44.872Z,98207.60
2023-03-11T01:07:38.170Z,98206.77
2023-03-11T01:08:40.718Z,98200.55
2023-03-11T01:09:43.252Z,98202.40
2023-03-11T01:10:46.705Z,98199.71
2023-03-11T01:11:49.843Z,98202.40
2023-03-11T01:12:52.485Z,98201.53
2023-03-11T01:13:56.363Z,98203.39
2023-03-11T01:14:58.790Z,98204.22
2023-03-11T01:16:03.233Z,98207.77
2023-03-11T01:17:05.961Z,98198.02
2023-03-11T01:18:08.508Z,98196.17
2023-03-11T01:19:11.053Z,98199.88
2023-03-11T01:20:14.070Z,98200.70
2023-03-11T01:21:16.660Z,98201.53
2023-03-11T01:22:19.318Z,98189.97
2023-03-11T01:23:22.230Z,98185.59
2023-03-11T01:24:25.694Z,98195.34
2023-03-11T01:25:28.200Z,98188.28
2023-03-11T01:26:33.273Z,98189.30
2023-03-11T01:27:35.971Z,98187.45
2023-03-11T01:28:39.424Z,98190.97
2023-03-11T01:29:41.945Z,98183.08
2023-03-11T01:30:44.788Z,98172.83
2023-03-11T01:31:47.569Z,98172.83
2023-03-11T01:32:50.906Z,98181.25
2023-03-11T01:33:53.428Z,98181.25
2023-03-11T01:34:55.878Z,98182.08
2023-03-11T01:35:58.483Z,98184.93
2023-03-11T01:37:03.415Z,98183.94
2023-03-11T01:38:06.003Z,98188.28
2023-03-11T01:39:08.577Z,98172.83
2023-03-11T01:40:15.682Z,98172.83
2023-03-11T01:41:18.379Z,98184.77
2023-03-11T01:42:21.779Z,98183.08
2023-03-11T01:43:46.684Z,98157.63
2023-03-11T01:44:51.719Z,98180.39
2023-03-11T01:45:58.167Z,98180.39
2023-03-11T01:47:05.787Z,98180.39
2023-03-11T01:48:10.155Z,98174.19
2023-03-11T01:49:12.866Z,98171.52
2023-03-11T01:50:17.027Z,98167.14
2023-03-11T01:51:25.894Z,98168.12
2023-03-11T01:52:29.792Z,98168.98
2023-03-11T01:53:33.842Z,98161.93
2023-03-11T01:54:38.031Z,98163.78
2023-03-11T01:55:41.466Z,98167.30
2023-03-11T01:56:44.355Z,98167.30
2023-03-11T01:57:47.176Z,98162.92
2023-03-11T01:58:51.731Z,98164.77
2023-03-11T01:59:57.264Z,98164.77
2023-03-11T02:01:00.425Z,98161.93
2023-03-11T02:02:15.745Z,98162.09
2023-03-11T02:03:21.945Z,98163.78
2023-03-11T02:04:26.338Z,98164.61
2023-03-11T02:05:29.165Z,98168.29
2023-03-11T02:06:32.338Z,98155.00
2023-03-11T02:07:36.294Z,98161.27
2023-03-11T02:08:40.108Z,98153.21
2023-03-11T02:09:43.305Z,98151.36
2023-03-11T02:10:46.237Z,98156.73
2023-03-11T02:11:50.244Z,98160.23
2023-03-11T02:12:53.089Z,98156.73
2023-03-11T02:14:00.948Z,98155.00
2023-03-11T02:15:04.551Z,98148.67
2023-03-11T02:16:08.602Z,98145.99
2023-03-11T02:17:11.362Z,98154.05
2023-03-11T02:18:14.118Z,98147.69
2023-03-11T02:19:41.401Z,98147.69
2023-03-11T02:21:21.732Z,98147.69
2023-03-11T02:22:24.420Z,98149.51
2023-03-11T02:23:30.971Z,98143.44
2023-03-11T02:24:40.653Z,98139.89
2023-03-11T02:25:54.769Z,98148.80
2023-03-11T02:27:08.739Z,98141.91
2023-03-11T02:28:12.318Z,98142.91
2023-03-11T02:29:15.080Z,98145.59
2023-03-11T02:30:19.870Z,98143.89
2023-03-11T02:31:22.809Z,98149.27
2023-03-11T02:32:25.892Z,98148.43
2023-03-11T02:33:31.034Z,98143.06
2023-03-11T02:34:34.997Z,98132.33
2023-03-11T02:35:38.490Z,98135.84
2023-03-11T02:36:42.330Z,98127.80
2023-03-11T02:37:48.100Z,98134.85
2023-03-11T02:38:51.478Z,98124.28
2023-03-11T02:39:56.200Z,98130.48
2023-03-11T02:41:01.335Z,98130.48
2023-03-11T02:42:17.009Z,98125.97
2023-03-11T02:43:23.968Z,98134.02
2023-03-11T02:44:26.736Z,98129.48
2023-03-11T02:45:31.358Z,98126.80
2023-03-11T02:46:35.159Z,98128.66
2023-03-11T02:47:38.944Z,98126.80
2023-03-11T02:48:43.108Z,98124.98
2023-03-11T02:49:48.201Z,98124.98
2023-03-11T02:50:51.420Z,98124.13
2023-03-11T02:51:54.203Z,98126.80
2023-03-11T02:52:56.721Z,98123.13
2023-03-11T02:54:01.054Z,98120.45
2023-03-11T02:55:04.961Z,98123.13
2023-03-11T02:56:08.078Z,98121.28
2023-03-11T02:57:10.710Z,98110.38
2023-03-11T02:58:13.328Z,98110.38
2023-03-11T02:59:15.995Z,98117.44
2023-03-11T03:00:20.637Z,98113.06
2023-03-11T03:01:24.889Z,98119.16
2023-03-11T03:02:27.550Z,98121.02
2023-03-11T03:03:30.196Z,98118.33
2023-03-11T03:04:33.750Z,98116.48
2023-03-11T03:05:36.316Z,98116.48
2023-03-11T03:06:39.315Z,98115.65
2023-03-11T03:07:43.478Z,98125.36
2023-03-11T03:08:46.070Z,98122.67
2023-03-11T03:09:49.054Z,98124.53
2023-03-11T03:10:51.673Z,98116.48
2023-03-11T03:11:54.121Z,98127.21
2023-03-11T03:12:57.089Z,98119.16
2023-03-11T03:14:00.695Z,98118.17
2023-03-11T03:15:04.074Z,98116.48
2023-03-11T03:16:07.391Z,98109.26
2023-03-11T03:17:10.014Z,98113.63
2023-03-11T03:18:14.075Z,98114.62
2023-03-11T03:19:17.116Z,98110.13
2023-03-11T03:20:22.125Z,98109.09
2023-03-11T03:21:26.632Z,98110.95
2023-03-11T03:22:29.733Z,98098.53
2023-03-11T03:24:46.574Z,98102.78
2023-03-11T03:25:49.351Z,98103.06
2023-03-11T03:26:52.485Z,98092.33
2023-03-11T03:27:55.067Z,98094.02
2023-03-11T03:28:57.700Z,98096.70
2023-03-11T03:30:00.141Z,98092.17
2023-03-11T03:32:21.059Z,98083.83
2023-03-11T03:33:23.894Z,98079.58
2023-03-11T03:34:26.236Z,98081.44
2023-03-11T03:35:29.346Z,98083.29
2023-03-11T03:36:45.641Z,98084.12
2023-03-11T03:37:49.528Z,98083.29
2023-03-11T03:38:56.158Z,98078.75
2023-03-11T03:40:00.520Z,98078.75
2023-03-11T03:41:04.442Z,98080.61
2023-03-11T03:42:08.074Z,98075.24
2023-03-11T03:43:12.165Z,98067.19
2023-03-11T03:44:16.821Z,98063.64
2023-03-11T03:45:20.066Z,98067.19
2023-03-11T03:46:24.163Z,98066.33
2023-03-11T03:47:28.381Z,98060.13
2023-03-11T03:48:31.077Z,98060.13
2023-03-11T03:49:34.226Z,98054.77
2023-03-11T03:50:36.766Z,98065.34
2023-03-11T03:51:39.201Z,98053.94
2023-03-11T03:52:44.828Z,98047.55
2023-03-11T03:53:47.634Z,98050.06
2023-03-11T03:54:50.058Z,98051.09
2023-03-11T03:55:55.077Z,98047.68
2023-03-11T03:56:58.745Z,98053.77
2023-03-11T03:58:02.132Z,98044.86
2023-03-11T03:59:06.487Z,98043.04
2023-03-11T04:00:12.052Z,98038.50
2023-03-11T04:01:17.646Z,98039.50
2023-03-11T04:02:20.164Z,98039.50
2023-03-11T04:03:24.174Z,98040.36
2023-03-11T04:04:28.702Z,98030.62
2023-03-11T04:05:31.702Z,98030.62
2023-03-11T04:06:34.722Z,98024.42
2023-03-11T04:07:39.402Z,98025.25
2023-03-11T04:08:42.486Z,98019.89
2023-03-11T04:09:46.634Z,98026.94
2023-03-11T04:12:13.961Z,98014.22
2023-03-11T04:13:17.330Z,98009.98
2023-03-11T04:14:20.372Z,98008.33
2023-03-11T04:15:26.001Z,98006.47
2023-03-11T04:16:29.612Z,98002.96
2023-03-11T04:17:34.159Z,97995.74
2023-03-11T04:18:37.250Z,97999.25
2023-03-11T04:19:41.503Z,97995.74
2023-03-11T04:20:45.901Z,98000.11
2023-03-11T04:21:51.332Z,97986.86
2023-03-11T04:22:53.998Z,97994.75
2023-03-11T04:23:58.445Z,98000.11
2023-03-11T04:25:04.615Z,97995.74
2023-03-11T04:26:08.609Z,97995.58
2023-03-11T04:27:12.484Z,97997.43
2023-03-11T04:28:15.267Z,97985.61
2023-03-11T04:29:20.006Z,97985.61
2023-03-11T04:30:24.265Z,97990.38
2023-03-11T04:31:30.037Z,97987.69
2023-03-11T04:32:33.195Z,97991.34
2023-03-11T04:33:35.999Z,97975.23
2023-03-11T04:34:39.293Z,97979.64
2023-03-11T04:35:41.773Z,97976.13
2023-03-11T04:36:44.545Z,97977.79
2023-03-11T04:37:47.857Z,97971.59
2023-03-11T04:38:50.647Z,97976.95
2023-03-11T04:39:53.871Z,97965.40
2023-03-11T04:41:02.046Z,97972.42
2023-03-11T04:42:05.352Z,97968.91
2023-03-11T04:43:08.531Z,97959.14
2023-03-11T04:44:11.237Z,97966.23
2023-03-11T04:45:14.646Z,97966.23
2023-03-11T04:46:17.878Z,97962.72
2023-03-11T04:47:21.517Z,97964.38
2023-03-11T04:48:27.608Z,97960.03
2023-03-11T04:49:30.662Z,97960.86
2023-03-11T04:50:33.117Z,97961.69
2023-03-11T04:51:37.808Z,97964.38
2023-03-11T04:52:41.085Z,97959.87
2023-03-11T04:53:44.057Z,97953.64
2023-03-11T04:54:47.810Z,97950.13
2023-03-11T04:55:51.813Z,97948.11
2023-03-11T04:56:54.384Z,97956.16
2023-03-11T04:57:57.637Z,97949.80
2023-03-11T04:59:00.824Z,97953.34
2023-03-11T05:00:11.436Z,97947.97
2023-03-11T05:01:14.972Z,97954.33
2023-03-11T05:02:19.262Z,97954.17
2023-03-11T05:03:23.698Z,97951.48
2023-03-11T05:04:26.454Z,97952.48
2023-03-11T05:05:29.083Z,97948.80
2023-03-11T05:06:31.803Z,97947.97
2023-03-11T05:07:35.436Z,97947.97
2023-03-11T05:08:38.389Z,97951.48
2023-03-11T05:09:41.300Z,97939.92
2023-03-11T05:10:44.285Z,97938.89
2023-03-11T05:11:48.027Z,97935.38
2023-03-11T05:12:51.734Z,97931.70
2023-03-11T05:13:55.452Z,97932.53
2023-03-11T05:14:58.496Z,97926.34
2023-03-11T05:16:01.883Z,97927.17
2023-03-11T05:17:04.914Z,97927.99
2023-03-11T05:18:07.669Z,97919.95
2023-03-11T05:19:29.796Z,97924.31
2023-03-11T05:20:33.247Z,97918.78
2023-03-11T05:21:36.373Z,97912.59
2023-03-11T05:22:40.124Z,97904.54
2023-03-11T05:23:45.108Z,97913.41
2023-03-11T05:24:48.442Z,97911.59
2023-03-11T05:25:51.177Z,97910.73
2023-03-11T05:26:53.916Z,97900.00
2023-03-11T05:27:56.564Z,97902.68
2023-03-11T05:28:59.900Z,97898.17
2023-03-11T05:30:04.371Z,97889.09
2023-03-11T05:31:09.650Z,97890.13
2023-03-11T05:32:13.738Z,97888.27
2023-03-11T05:33:17.564Z,97883.73
2023-03-11T05:34:20.591Z,97877.53
2023-03-11T05:35:24.067Z,97880.22
2023-03-11T05:36:27.160Z,97879.39
2023-03-11T05:37:31.550Z,97880.05
2023-03-11T05:38:36.412Z,97878.36
2023-03-11T05:39:39.315Z,97878.36
2023-03-11T05:40:42.117Z,97880.05
2023-03-11T05:41:45.063Z,97886.24
2023-03-11T05:42:48.815Z,97884.42
2023-03-11T05:43:52.077Z,97878.05
2023-03-11T05:44:54.726Z,97881.73
2023-03-11T05:45:58.352Z,97879.71
2023-03-11T05:47:01.445Z,97878.88
2023-03-11T05:48:04.812Z,97886.94
2023-03-11T05:49:07.771Z,97884.08
2023-03-11T05:50:12.306Z,97877.03
2023-03-11T05:51:15.599Z,97882.39
2023-03-11T05:52:18.974Z,97877.03
2023-03-11T05:53:21.587Z,97885.94
2023-03-11T05:54:25.180Z,97878.71
2023-03-11T05:55:28.146Z,97880.57
2023-03-11T05:56:30.856Z,97880.57
2023-03-11T05:57:33.714Z,97878.71
2023-03-11T05:58:38.262Z,97879.55
2023-03-11T05:59:42.096Z,97879.55
2023-03-11T06:00:45.279Z,97870.66
2023-03-11T06:01:48.949Z,97872.34
2023-03-11T06:02:52.479Z,97872.34
2023-03-11T06:03:55.423Z,97871.49
2023-03-11T06:04:59.277Z,97867.32
2023-03-11T06:06:02.110Z,97868.31
2023-03-11T06:07:06.491Z,97871.17
2023-03-11T06:08:10.798Z,97873.85
2023-03-11T06:09:14.448Z,97870.31
2023-03-11T06:10:18.922Z,97864.12
2023-03-11T06:11:23.780Z,97865.11
2023-03-11T06:12:26.946Z,97867.97
2023-03-11T06:13:31.557Z,97864.63
2023-03-11T06:14:34.363Z,97864.93
2023-03-11T06:15:37.786Z,97858.91
2023-03-11T06:16:41.884Z,97857.19
2023-03-11T06:17:45.914Z,97857.19
2023-03-11T06:18:48.593Z,97849.31
2023-03-11T06:19:52.880Z,97859.38
2023-03-11T06:20:59.645Z,97857.86
2023-03-11T06:22:03.356Z,97861.19
2023-03-11T06:23:07.241Z,97852.48
2023-03-11T06:24:12.539Z,97858.84
2023-03-11T06:25:16.049Z,97848.28
2023-03-11T06:26:20.668Z,97856.33
2023-03-11T06:27:24.131Z,97859.01
2023-03-11T06:28:28.321Z,97855.33
2023-03-11T06:29:31.296Z,97856.16
2023-03-11T06:30:34.125Z,97863.21
2023-03-11T06:31:39.643Z,97861.52
2023-03-11T06:32:45.862Z,97855.16
2023-03-11T06:33:48.680Z,97859.01
2023-03-11T06:34:52.212Z,97853.81
2023-03-11T06:37:29.517Z,97852.97
2023-03-11T06:38:32.627Z,97858.66
2023-03-11T06:39:35.829Z,97859.68
2023-03-11T06:40:40.239Z,97869.38
2023-03-11T06:41:42.744Z,97859.81
2023-03-11T06:44:10.347Z,97857.84
2023-03-11T06:45:14.657Z,97864.19
2023-03-11T06:46:21.962Z,97854.31
2023-03-11T06:47:25.897Z,97856.83
2023-03-11T06:48:28.432Z,97852.30
2023-03-11T06:49:31.147Z,97845.77
2023-03-11T06:50:33.956Z,97840.23
2023-03-11T06:51:37.591Z,97835.53
2023-03-11T06:52:40.529Z,97835.39
2023-03-11T06:53:43.971Z,97832.71
2023-03-11T06:54:47.900Z,97826.31
2023-03-11T06:56:09.884Z,97821.81
2023-03-11T06:57:16.006Z,97823.47
2023-03-11T06:58:18.841Z,97829.69
2023-03-11T06:59:22.885Z,97825.16
2023-03-11T07:00:26.014Z,97818.95
2023-03-11T07:01:30.667Z,97809.06
2023-03-11T07:02:33.648Z,97813.42
2023-03-11T07:03:36.992Z,97817.96
2023-03-11T07:04:39.639Z,97817.96
2023-03-11T07:05:42.824Z,97814.25
2023-03-11T07:06:47.374Z,97810.58
2023-03-11T07:07:54.459Z,97802.53
2023-03-11T07:08:57.055Z,97811.92
2023-03-11T07:10:01.116Z,97798.51
2023-03-11T07:12:24.835Z,97788.98
2023-03-11T07:13:28.255Z,97794.52
2023-03-11T07:14:31.221Z,97789.16
2023-03-11T07:15:34.979Z,97788.98
2023-03-11T07:16:39.739Z,97777.25
2023-03-11T07:17:44.086Z,97780.76
2023-03-11T07:18:47.724Z,97771.71
2023-03-11T07:19:51.555Z,97772.37
2023-03-11T07:20:55.127Z,97774.05
2023-03-11T07:21:57.627Z,97770.38
2023-03-11T07:23:00.986Z,97767.69
2023-03-11T07:24:04.931Z,97771.03
2023-03-11T07:25:07.894Z,97762.98
2023-03-11T07:26:12.575Z,97766.34
2023-03-11T07:27:15.497Z,97766.34
2023-03-11T07:28:18.938Z,97768.34
2023-03-11T07:29:21.879Z,97771.89
2023-03-11T07:30:27.552Z,97770.03
2023-03-11T07:31:31.713Z,97765.66
2023-03-11T07:32:34.625Z,97765.48
2023-03-11T07:33:38.707Z,97764.66
2023-03-11T07:34:41.224Z,97768.17
2023-03-11T07:35:44.546Z,97761.16
2023-03-11T07:36:47.407Z,97763.66
2023-03-11T07:37:50.071Z,97758.47
2023-03-11T07:38:57.797Z,97764.66
2023-03-11T07:40:00.390Z,97760.30
2023-03-11T07:41:03.157Z,97757.61
2023-03-11T07:42:05.941Z,97768.34
2023-03-11T07:43:13.358Z,97760.30
2023-03-11T07:44:17.092Z,97754.10
2023-03-11T07:45:20.161Z,97762.98
2023-03-11T07:46:24.887Z,97754.10
2023-03-11T07:47:27.953Z,97761.16
2023-03-11T07:48:31.685Z,97760.30
2023-03-11T07:49:35.595Z,97749.56
2023-03-11T07:50:38.846Z,97745.05
2023-03-11T07:51:43.428Z,97744.19
2023-03-11T07:52:46.194Z,97740.69
2023-03-11T07:53:48.971Z,97740.52
2023-03-11T07:54:51.429Z,97737.00
2023-03-11T07:55:57.440Z,97741.52
2023-03-11T07:57:00.801Z,97739.69
2023-03-11T07:58:04.284Z,97726.27
2023-03-11T07:59:07.745Z,97731.63
2023-03-11T08:00:13.168Z,97730.78
2023-03-11T08:01:24.413Z,97727.92
2023-03-11T08:02:28.247Z,97723.59
2023-03-11T08:03:33.824Z,97723.59
2023-03-11T08:04:36.511Z,97711.82
2023-03-11T08:05:39.996Z,97709.31
2023-03-11T08:06:44.987Z,97700.27
2023-03-11T08:07:47.791Z,97700.44
2023-03-11T08:08:51.473Z,97695.06
2023-03-11T08:09:54.975Z,97686.02
2023-03-11T08:10:57.492Z,97686.02
2023-03-11T08:12:00.042Z,97682.48
2023-03-11T08:13:02.691Z,97691.39
2023-03-11T08:14:05.348Z,97685.16
2023-03-11T08:15:14.961Z,97686.02
2023-03-11T08:16:20.187Z,97686.84
2023-03-11T08:17:23.182Z,97690.36
2023-03-11T08:18:26.669Z,97684.16
2023-03-11T08:19:31.549Z,97687.67
2023-03-11T08:20:35.284Z,97679.62
2023-03-11T08:21:37.995Z,97682.48
2023-03-11T08:22:55.561Z,97663.22
2023-03-11T08:23:48.130Z,97663.22
2023-03-11T08:24:52.690Z,97667.89
2023-03-11T08:25:55.143Z,97663.38
2023-03-11T08:26:58.085Z,97658.02
2023-03-11T08:28:00.843Z,97659.84
2023-03-11T08:29:03.588Z,97654.47
2023-03-11T08:30:08.486Z,97650.79
2023-03-11T08:32:31.043Z,97633.66
2023-03-11T08:33:33.520Z,97622.80
2023-03-11T08:34:38.539Z,97628.34
2023-03-11T08:35:41.568Z,97622.97
2023-03-11T08:36:45.377Z,97624.80
2023-03-11T08:37:48.472Z,97633.88
2023-03-11T08:38:52.860Z,97634.70
2023-03-11T08:39:55.358Z,97627.66
2023-03-11T08:40:57.933Z,97635.88
2023-03-11T08:42:02.492Z,97635.23
2023-03-11T08:43:05.944Z,97618.61
2023-03-11T08:44:08.662Z,97631.00
2023-03-11T08:45:13.011Z,97618.26
2023-03-11T08:46:25.552Z,97618.26
2023-03-11T08:47:29.130Z,97610.38
2023-03-11T08:48:31.884Z,97620.29
2023-03-11T08:49:34.663Z,97618.44
2023-03-11T08:50:52.872Z,97621.11
2023-03-11T08:51:43.457Z,97610.38
2023-03-11T08:52:46.607Z,97612.89
2023-03-11T08:53:50.111Z,97606.53
2023-03-11T08:54:53.614Z,97609.03
2023-03-11T08:55:56.107Z,97600.16
2023-03-11T08:57:03.257Z,97601.16
2023-03-11T08:58:05.644Z,97601.52
2023-03-11T08:59:09.039Z,97602.52
2023-03-11T09:00:13.289Z,97602.03
2023-03-11T09:01:16.192Z,97601.18
2023-03-11T09:02:18.824Z,97610.08
2023-03-11T09:03:21.416Z,97635.05
2023-03-11T09:04:24.396Z,97632.54
2023-03-11T09:05:28.237Z,97628.52
2023-03-11T09:06:31.490Z,97624.16
2023-03-11T09:07:35.187Z,97625.16
2023-03-11T09:08:38.880Z,97622.81
2023-03-11T09:09:42.398Z,97620.14
2023-03-11T09:10:45.190Z,97621.99
2023-03-11T09:11:47.998Z,97628.19
2023-03-11T09:12:51.994Z,97620.14
2023-03-11T09:13:54.544Z,97619.96
2023-03-11T09:14:57.169Z,97615.45
2023-03-11T09:16:01.706Z,97608.07
2023-03-11T09:18:21.109Z,97610.91
2023-03-11T09:19:23.854Z,97612.09
2023-03-11T09:20:26.382Z,97614.95
2023-03-11T09:21:30.069Z,97609.93
2023-03-11T09:22:32.786Z,97607.42
2023-03-11T09:23:36.177Z,97607.42
2023-03-11T09:24:38.712Z,97606.25
2023-03-11T09:25:41.128Z,97601.71
2023-03-11T09:26:44.216Z,97597.17
2023-03-11T09:27:46.918Z,97590.81
2023-03-11T09:28:49.760Z,97591.64
2023-03-11T09:29:52.478Z,97593.32
2023-03-11T09:30:54.943Z,97584.94
2023-03-11T09:31:59.004Z,97582.26
2023-03-11T09:33:17.361Z,97582.94
2023-03-11T09:34:19.974Z,97580.26
2023-03-11T09:35:22.607Z,97552.11
2023-03-11T09:36:26.200Z,97552.11
2023-03-11T09:37:30.789Z,97562.66
2023-03-11T09:38:33.464Z,97559.16
2023-03-11T09:39:36.088Z,97557.47
2023-03-11T09:40:50.677Z,97551.28
2023-03-11T09:43:32.717Z,97558.28
2023-03-11T09:44:45.324Z,97550.60
2023-03-11T09:46:13.804Z,97560.50
2023-03-11T09:47:58.066Z,97548.75
2023-03-11T09:49:06.920Z,97552.45
2023-03-11T09:50:15.061Z,97546.41
2023-03-11T09:51:24.261Z,97546.59
2023-03-11T09:52:39.458Z,97547.59
2023-03-11T09:53:43.970Z,97543.25
2023-03-11T09:54:48.322Z,97540.58
2023-03-11T09:57:15.858Z,97527.62
2023-03-11T09:58:35.604Z,97532.36
2023-03-11T09:59:38.348Z,97532.36
2023-03-11T10:00:42.103Z,97531.50
2023-03-11T10:01:47.719Z,97520.95
2023-03-11T10:02:50.721Z,97526.31
2023-03-11T10:03:59.399Z,97521.98
2023-03-11T10:06:41.553Z,97508.03
2023-03-11T10:07:46.915Z,97506.55
2023-03-11T10:10:16.058Z,97491.77
2023-03-11T10:11:30.912Z,97480.56
2023-03-11T10:12:52.625Z,97476.05
2023-03-11T10:14:05.011Z,97467.16
2023-03-11T10:15:17.296Z,97463.47
2023-03-11T10:16:27.694Z,97476.88
2023-03-11T10:19:09.619Z,97466.12
2023-03-11T10:20:23.475Z,97465.68
2023-03-11T10:21:41.733Z,97462.14
2023-03-11T10:23:07.219Z,97460.81
2023-03-11T10:24:31.542Z,97466.35
2023-03-11T10:25:56.233Z,97467.35
2023-03-11T10:27:03.614Z,97453.95
2023-03-11T10:28:15.126Z,97457.31
2023-03-11T10:29:27.848Z,97468.03
2023-03-11T10:30:40.281Z,97470.20
2023-03-11T10:33:27.172Z,97458.46
2023-03-11T10:35:52.074Z,97442.91
2023-03-11T10:37:13.546Z,97438.23
2023-03-11T10:38:35.481Z,97444.62
2023-03-11T10:39:39.033Z,97434.73
2023-03-11T10:40:44.502Z,97431.05
2023-03-11T10:41:55.774Z,97420.98
2023-03-11T10:43:02.263Z,97427.16
2023-03-11T10:44:18.161Z,97424.16
2023-03-11T10:45:22.885Z,97423.13
2023-03-11T10:46:27.007Z,97443.58
2023-03-11T10:47:30.095Z,97424.81
2023-03-11T10:48:32.995Z,97426.49
2023-03-11T10:49:35.503Z,97430.86
2023-03-11T10:50:59.204Z,97437.04
2023-03-11T10:52:14.546Z,97420.13
2023-03-11T10:53:19.668Z,97426.31
2023-03-11T10:54:25.956Z,97419.27
2023-03-11T10:55:28.425Z,97418.27
2023-03-11T10:56:36.635Z,97413.09
2023-03-11T10:57:40.296Z,97415.77
2023-03-11T10:58:47.078Z,97416.59
2023-03-11T10:59:52.404Z,97406.73
2023-03-11T11:01:00.623Z,97410.23
2023-03-11T11:03:34.515Z,97409.20
2023-03-11T11:04:39.082Z,97415.95
2023-03-11T11:05:41.613Z,97405.05
2023-03-11T11:06:45.790Z,97410.59
2023-03-11T11:07:53.553Z,97403.19
2023-03-11T11:10:22.270Z,97395.63
2023-03-11T11:11:36.438Z,97397.01
2023-03-11T11:13:03.245Z,97403.72
2023-03-11T11:14:07.298Z,97398.36
2023-03-11T11:15:14.514Z,97399.19
2023-03-11T11:16:20.821Z,97399.87
2023-03-11T11:18:44.098Z,97394.95
2023-03-11T11:19:48.341Z,97391.47
2023-03-11T11:20:58.808Z,97378.89
2023-03-11T11:22:04.282Z,97386.94
2023-03-11T11:23:10.234Z,97377.89
2023-03-11T11:24:28.426Z,97370.85
2023-03-11T11:25:34.617Z,97370.85
2023-03-11T11:26:37.943Z,97361.98
2023-03-11T11:27:40.591Z,97360.12
2023-03-11T11:28:43.773Z,97354.13
2023-03-11T11:29:46.839Z,97357.63
2023-03-11T11:32:19.154Z,97339.00
2023-03-11T11:33:29.556Z,97337.54
2023-03-11T11:34:35.061Z,97348.26
2023-03-11T11:35:40.033Z,97338.39
2023-03-11T11:36:44.869Z,97339.04
2023-03-11T11:37:49.603Z,97328.31
2023-03-11T11:38:53.541Z,97326.49
2023-03-11T11:39:59.701Z,97324.45
2023-03-11T11:41:06.448Z,97315.77
2023-03-11T11:42:12.273Z,97314.91
2023-03-11T11:43:18.164Z,97316.77
2023-03-11T11:44:22.785Z,97316.95
2023-03-11T11:48:28.162Z,97310.70
2023-03-11T11:49:34.238Z,97311.09
2023-03-11T11:50:47.185Z,97299.41
2023-03-11T11:52:02.172Z,97295.23
2023-03-11T11:53:09.753Z,97297.27
2023-03-11T11:54:37.947Z,97287.01
2023-03-11T11:57:01.663Z,97293.30
2023-03-11T11:58:09.024Z,97289.01
2023-03-11T11:59:18.264Z,97303.05
2023-03-11T12:00:25.352Z,97296.69
2023-03-11T12:03:19.945Z,97292.25
2023-03-11T12:05:02.841Z,97288.78
2023-03-11T12:06:21.300Z,97283.25
2023-03-11T12:07:40.585Z,97289.44
2023-03-11T12:09:05.169Z,97288.78
2023-03-11T12:10:23.326Z,97299.33
2023-03-11T12:11:26.464Z,97295.80
2023-03-11T12:13:56.701Z,97289.39
2023-03-11T12:15:12.066Z,97295.98
2023-03-11T12:16:24.564Z,97288.78
2023-03-11T12:17:27.731Z,97291.28
2023-03-11T12:18:43.001Z,97276.85
2023-03-11T12:19:58.411Z,97289.08
2023-03-11T12:21:02.013Z,97289.08
2023-03-11T12:23:32.504Z,97283.80
2023-03-11T12:25:12.050Z,97287.71
2023-03-11T12:26:22.780Z,97283.38
2023-03-11T12:27:34.332Z,97273.30
2023-03-11T12:29:01.288Z,97286.52
2023-03-11T12:30:08.361Z,97273.13
2023-03-11T12:31:12.716Z,97278.48
2023-03-11T12:32:36.720Z,97276.66
2023-03-11T12:33:46.959Z,97273.98
2023-03-11T12:34:49.582Z,97273.80
2023-03-11T12:35:56.482Z,97273.80
2023-03-11T12:37:02.586Z,97275.27
2023-03-11T12:38:14.149Z,97277.94
2023-03-11T12:39:28.063Z,97279.62
2023-03-11T12:40:50.810Z,97282.30
2023-03-11T12:42:20.744Z,97275.11
2023-03-11T12:43:35.894Z,97280.47
2023-03-11T12:44:39.896Z,97274.08
2023-03-11T12:45:50.622Z,97269.75
2023-03-11T12:47:01.434Z,97281.30
2023-03-11T12:48:35.844Z,97269.90
2023-03-11T12:49:43.910Z,97262.70
2023-03-11T12:50:48.129Z,97269.75
2023-03-11T12:52:03.163Z,97262.89
2023-03-11T12:53:06.690Z,97269.08
2023-03-11T12:56:00.769Z,97265.80
2023-03-11T12:57:20.139Z,97267.89
2023-03-11T12:58:27.403Z,97263.53
2023-03-11T12:59:38.869Z,97260.03
2023-03-11T13:02:47.416Z,97253.42
2023-03-11T13:04:00.558Z,97243.94
2023-03-11T13:05:22.936Z,97245.77
2023-03-11T13:06:39.237Z,97248.45
2023-03-11T13:07:52.345Z,97242.27
2023-03-11T13:08:56.575Z,97246.98
2023-03-11T13:10:18.003Z,97243.45
2023-03-11T13:11:36.405Z,97235.59
2023-03-11T13:12:49.721Z,97237.27
2023-03-11T13:13:52.770Z,97237.27
2023-03-11T13:16:38.034Z,97227.98
2023-03-11T13:17:41.192Z,97227.55
2023-03-11T13:18:44.677Z,97217.67
2023-03-11T13:19:48.943Z,97213.96
2023-03-11T13:20:59.552Z,97213.96
2023-03-11T13:22:04.512Z,97203.91
2023-03-11T13:23:15.004Z,97205.55
2023-03-11T13:24:29.006Z,97211.59
2023-03-11T13:25:35.368Z,97204.36
2023-03-11T13:26:49.931Z,97207.90
2023-03-11T13:27:53.301Z,97203.55
2023-03-11T13:29:35.667Z,97197.17
2023-03-11T13:30:40.790Z,97199.85
2023-03-11T13:32:21.005Z,97199.85
2023-03-11T13:33:28.363Z,97199.85
2023-03-11T13:34:45.165Z,97197.36
2023-03-11T13:36:08.207Z,97201.86